»·PEaware :: DFGCW KBOI-KRDM

DFGCW :: KBOI-KRDM

FLIGHT INFORMATION

Flight Status: Arrived
Operator: Unknown
More flights by this operator :: More flights under this callsign
Pilot: Klaus A. (15485)
Aircraft: PILATUS PC-12 EAGLE
(PC12)
More flights by this aircraft type
Origin: KBOI Boise Air Terminal/Gowen
United States
Destination: KRDM Roberts
United States
More flights between these airports :: More routes between these airports
Route: +BOI3 BOI BOI V500 IMB
File this flight plan on PilotEdge
Remarks: / G Custom weather
Altitude:
(Current/Filed)
24,000ft
Speed:
(Current/Filed)
230kts
Departed: 14-Jun-18 08:49 AM
Arrived: 14-Jun-18 10:03 AM
Distance/Time
Traveled:
217nm/1:14
Distance/Time
To Go:
Arrived

Flight Plot

Page will automatically refresh every two minutes.

Flight plan parsing failed; only flown route is shown


Map Options




Map Legend


Flown Route
Filed Route
Departure Airport
Arrival Airport
Navaid (VOR, NDB)
Fix

Horizontal Profiles

Position Reports

Time Latitude Longitude Heading Altitude Ground
Speed
14-Jun-18 08:21 43.562021 -116.204968 191 2877ft 0kts
14-Jun-18 08:22 43.562021 -116.204968 191 2877ft 0kts
14-Jun-18 08:23 43.562021 -116.204968 191 2877ft 0kts
14-Jun-18 08:24 43.562021 -116.204968 191 2877ft 0kts
14-Jun-18 08:25 43.562021 -116.204968 191 2877ft 0kts
14-Jun-18 08:26 43.562021 -116.204968 191 2877ft 0kts
14-Jun-18 08:27 43.562021 -116.204968 191 2877ft 0kts
14-Jun-18 08:28 43.562021 -116.204968 191 2877ft 0kts
14-Jun-18 08:29 43.562021 -116.204968 191 2877ft 0kts
14-Jun-18 08:30 43.562021 -116.204968 191 2877ft 0kts
14-Jun-18 08:31 43.562021 -116.204968 191 2877ft 0kts
14-Jun-18 08:32 43.562021 -116.204968 191 2877ft 0kts
14-Jun-18 08:33 43.562021 -116.204968 191 2877ft 0kts
14-Jun-18 08:34 43.562021 -116.204968 191 2877ft 0kts
14-Jun-18 08:35 43.562021 -116.204968 191 2877ft 0kts
14-Jun-18 08:36 43.562021 -116.204968 191 2877ft 0kts
14-Jun-18 08:37 43.562021 -116.204968 191 2877ft 0kts
14-Jun-18 08:38 43.562021 -116.204968 191 2877ft 0kts
14-Jun-18 08:39 43.562021 -116.204968 191 2877ft 0kts
14-Jun-18 08:40 43.562021 -116.204968 191 2877ft 0kts
14-Jun-18 08:41 43.562021 -116.204968 191 2877ft 0kts
14-Jun-18 08:42 43.562021 -116.204968 191 2877ft 0kts
14-Jun-18 08:43 43.562021 -116.204969 190 2877ft 0kts
14-Jun-18 08:44 43.561639 -116.205705 224 2877ft 13kts
14-Jun-18 08:45 43.559742 -116.202467 118 2877ft 10kts
14-Jun-18 08:46 43.559297 -116.202020 209 2877ft 0kts
14-Jun-18 08:47 43.559297 -116.202020 209 2877ft 0kts
14-Jun-18 08:48 43.558777 -116.202424 232 2876ft 11kts
14-Jun-18 08:49 43.567651 -116.231819 294 3525ft 135kts
14-Jun-18 08:50 43.586200 -116.287785 296 5235ft 173kts
14-Jun-18 08:51 43.606750 -116.348800 295 7183ft 180kts
14-Jun-18 08:52 43.627641 -116.410988 296 9023ft 182kts
14-Jun-18 08:53 43.649137 -116.474952 296 10661ft 186kts
14-Jun-18 08:54 43.671105 -116.540138 296 12214ft 190kts
14-Jun-18 08:55 43.693615 -116.606980 296 13782ft 194kts
14-Jun-18 08:56 43.715963 -116.674343 294 15176ft 198kts
14-Jun-18 08:57 43.738934 -116.744192 295 16459ft 202kts
14-Jun-18 08:58 43.762575 -116.815106 295 17625ft 205kts
14-Jun-18 08:59 43.786626 -116.887313 295 18685ft 208kts
14-Jun-18 09:00 43.809905 -116.957348 295 19605ft 211kts
14-Jun-18 09:01 43.834519 -117.031586 295 20479ft 214kts
14-Jun-18 09:02 43.859386 -117.106833 295 21325ft 217kts
14-Jun-18 09:03 43.884539 -117.183358 291 22130ft 220kts
14-Jun-18 09:04 43.903165 -117.264075 292 22854ft 222kts
14-Jun-18 09:05 43.927650 -117.343201 294 23518ft 224kts
14-Jun-18 09:06 43.952916 -117.422842 294 24002ft 233kts
14-Jun-18 09:07 43.980440 -117.509659 294 24006ft 256kts
14-Jun-18 09:08 44.009592 -117.601920 294 24003ft 267kts
14-Jun-18 09:09 44.039269 -117.696155 293 24000ft 271kts
14-Jun-18 09:10 44.069470 -117.792406 293 24000ft 273kts
14-Jun-18 09:11 44.099674 -117.889042 293 24000ft 273kts
14-Jun-18 09:12 44.129291 -117.984166 293 24000ft 274kts
14-Jun-18 09:13 44.159398 -118.081221 293 24000ft 274kts
14-Jun-18 09:14 44.189429 -118.178395 293 24000ft 274kts
14-Jun-18 09:15 44.219336 -118.275535 293 24000ft 274kts
14-Jun-18 09:16 44.249307 -118.373254 293 24000ft 274kts
14-Jun-18 09:17 44.279017 -118.470499 293 24000ft 274kts
14-Jun-18 09:18 44.308728 -118.568120 293 23990ft 269kts
14-Jun-18 09:19 44.335436 -118.656205 293 23785ft 249kts
14-Jun-18 09:20 44.362526 -118.745824 293 22805ft 254kts
14-Jun-18 09:21 44.390123 -118.837474 293 21813ft 257kts
14-Jun-18 09:22 44.417719 -118.929447 293 20819ft 258kts
14-Jun-18 09:23 44.445414 -119.022088 293 19777ft 258kts
14-Jun-18 09:24 44.473019 -119.114767 293 18783ft 258kts
14-Jun-18 09:25 44.500465 -119.207249 293 17791ft 257kts
14-Jun-18 09:26 44.506857 -119.300716 246 16801ft 255kts
14-Jun-18 09:27 44.481860 -119.393300 249 15809ft 254kts
14-Jun-18 09:28 44.457715 -119.486196 249 14818ft 254kts
14-Jun-18 09:29 44.433683 -119.578540 249 13833ft 254kts
14-Jun-18 09:30 44.409984 -119.669270 248 12863ft 253kts
14-Jun-18 09:31 44.385821 -119.761408 248 12007ft 248kts
14-Jun-18 09:32 44.362856 -119.848646 248 11998ft 234kts
14-Jun-18 09:33 44.340404 -119.933641 248 11999ft 233kts
14-Jun-18 09:34 44.318031 -120.018032 248 11999ft 232kts
14-Jun-18 09:35 44.295474 -120.102813 248 12000ft 232kts
14-Jun-18 09:36 44.272958 -120.187147 248 12000ft 233kts
14-Jun-18 09:37 44.250271 -120.271817 248 12000ft 233kts
14-Jun-18 09:38 44.227525 -120.356418 248 11923ft 233kts
14-Jun-18 09:39 44.204920 -120.440195 248 10917ft 230kts
14-Jun-18 09:40 44.182415 -120.523309 248 9928ft 229kts
14-Jun-18 09:41 44.160055 -120.605600 248 9196ft 218kts
14-Jun-18 09:42 44.139674 -120.680371 247 9199ft 210kts
14-Jun-18 09:43 44.118934 -120.756225 247 9199ft 210kts
14-Jun-18 09:44 44.098522 -120.832419 248 9123ft 214kts
14-Jun-18 09:45 44.078219 -120.908898 248 8102ft 207kts
14-Jun-18 09:46 44.058907 -120.981420 248 7122ft 203kts
14-Jun-18 09:47 44.042434 -121.043077 248 6801ft 188kts
14-Jun-18 09:48 44.025316 -121.107047 248 6799ft 192kts
14-Jun-18 09:49 44.016136 -121.173279 264 6800ft 192kts
14-Jun-18 09:50 44.012447 -121.236983 265 6800ft 192kts
14-Jun-18 09:51 44.008608 -121.302773 264 6796ft 182kts
14-Jun-18 09:52 44.022444 -121.356549 348 6345ft 167kts
14-Jun-18 09:53 44.059859 -121.366238 355 5886ft 145kts
14-Jun-18 09:54 44.096725 -121.373928 355 5907ft 159kts
14-Jun-18 09:55 44.138783 -121.382693 355 5899ft 161kts
14-Jun-18 09:56 44.167677 -121.363149 67 5466ft 126kts
14-Jun-18 09:57 44.181521 -121.327501 63 4987ft 100kts
14-Jun-18 09:58 44.195697 -121.292896 63 5004ft 107kts
14-Jun-18 09:59 44.210982 -121.255729 62 4396ft 106kts
14-Jun-18 10:00 44.224541 -121.222699 63 4105ft 95kts
14-Jun-18 10:01 44.239156 -121.187011 62 3555ft 106kts
14-Jun-18 10:02 44.252445 -121.154531 58 3083ft 75kts
14-Jun-18 10:03 44.255299 -121.150081 301 3083ft 0kts
14-Jun-18 10:04 44.255169 -121.151014 239 3083ft 0kts
14-Jun-18 10:05 44.252975 -121.156408 241 3082ft 23kts
14-Jun-18 10:06 44.251656 -121.161003 264 3083ft 6kts
14-Jun-18 10:07 44.251941 -121.161445 328 3083ft 0kts
14-Jun-18 10:08 44.251941 -121.161445 328 3083ft 0kts
14-Jun-18 10:09 44.251941 -121.161445 328 3083ft 0kts
14-Jun-18 10:10 44.251941 -121.161445 328 3083ft 0kts

Navigation Log

Ident Type
Flight plan parsing failed, navigation log unavailable